Time;durP1;ratioP1;P1;durP2;ratioP2;P2;SDS_P1;SDS_P2;PMS_P1;PMS_P2;Temp;Humidity;BMP_temperature;BMP_pressure;BME280_temperature;BME280_humidity;BME280_pressure;Samples;Min_cycle;Max_cycle;Signal;HPM_P1;HPM_P2
2023/09/03 00:00:12;;;;;;;;;;;;;;;26.96;58.04;101700.50;5052268;28;19913;-87
2023/09/03 00:02:38;;;;;;;;;;;;;;;26.97;57.89;101702.28;5051274;28;20378;-86
2023/09/03 00:05:04;;;;;;;;;;;;;;;26.96;57.90;101687.97;5034675;28;19970;-88
2023/09/03 00:07:29;;;;;;;;;;;;;;;26.96;57.87;101701.38;5063203;28;20433;-88
2023/09/03 00:09:54;;;;;;;;;;;;;;;26.96;57.58;101703.16;5048087;28;19971;-88
2023/09/03 00:12:20;;;;;;;;;;;;;;;26.97;57.72;101713.03;5054732;28;19917;-87
2023/09/03 00:14:45;;;;;;;;;;;;;;;26.95;57.78;101707.66;5077041;28;20027;-87
2023/09/03 00:17:14;;;;;;;;;;;;;;;26.95;57.55;101699.59;5064220;28;20435;-88
2023/09/03 00:19:41;;;;;;;;;;;;;;;26.95;57.50;101704.09;5067905;28;19939;-88
2023/09/03 00:22:06;;;;;;;;;;;;;;;26.94;57.97;101704.97;5064440;28;20385;-88
2023/09/03 00:24:33;;;;;;;;;;;;;;;26.93;57.83;101701.38;5061611;28;19931;-88
2023/09/03 00:26:58;;;;;;;;;;;;;;;26.92;57.87;101701.38;5052636;28;20368;-88
2023/09/03 00:29:24;;;;;;;;;;;;;;;26.93;57.69;101698.72;5055168;28;19921;-88
2023/09/03 00:31:49;;;;;;;;;;;;;;;26.90;57.86;101693.34;5060038;28;19951;-87
2023/09/03 00:34:15;;;;;;;;;;;;;;;26.93;57.73;101692.47;5044201;28;20377;-87
2023/09/03 00:36:40;;;;;;;;;;;;;;;26.92;57.74;101688.84;5057451;28;20297;-86
2023/09/03 00:39:06;;;;;;;;;;;;;;;26.91;57.46;101686.19;5053994;28;19927;-87
2023/09/03 00:41:32;;;;;;;;;;;;;;;26.88;57.40;101688.84;5036991;28;19917;-88
2023/09/03 00:43:58;;;;;;;;;;;;;;;26.87;57.13;101685.28;5068924;28;19986;-87
2023/09/03 00:46:23;;;;;;;;;;;;;;;26.83;56.77;101696.91;5068842;28;20403;-88
2023/09/03 00:48:49;;;;;;;;;;;;;;;26.86;56.99;101693.31;5050605;28;19913;-87
2023/09/03 00:51:15;;;;;;;;;;;;;;;26.83;56.93;101683.50;5034015;28;19916;-87
2023/09/03 00:53:41;;;;;;;;;;;;;;;26.81;56.80;101687.97;5033907;28;20317;-88
2023/09/03 00:56:08;;;;;;;;;;;;;;;26.83;56.73;101687.97;5033522;28;19920;-88
2023/09/03 00:58:34;;;;;;;;;;;;;;;26.81;56.59;101677.25;5057089;28;19912;-88
2023/09/03 01:00:59;;;;;;;;;;;;;;;26.78;56.61;101683.50;5053458;28;19916;-87
2023/09/03 01:03:26;;;;;;;;;;;;;;;26.80;56.98;101688.88;5050491;28;19936;-87
2023/09/03 01:05:51;;;;;;;;;;;;;;;26.78;56.33;101680.81;5050631;28;19921;-88
2023/09/03 01:08:17;;;;;;;;;;;;;;;26.77;56.83;101684.38;5050332;28;19924;-87
2023/09/03 01:10:49;;;;;;;;;;;;;;;26.78;56.64;101679.94;5067118;28;20317;-87
2023/09/03 01:13:17;;;;;;;;;;;;;;;26.78;56.56;101680.81;5059157;28;20309;-87
2023/09/03 01:15:44;;;;;;;;;;;;;;;26.78;56.16;101679.94;5059215;28;19967;-87
2023/09/03 01:18:20;;;;;;;;;;;;;;;26.79;56.64;101679.03;5047534;28;19945;-88
2023/09/03 01:21:05;;;;;;;;;;;;;;;26.81;56.59;101679.91;5028322;28;19912;-88
2023/09/03 01:23:45;;;;;;;;;;;;;;;26.78;56.68;101675.47;5064569;28;20931;-86
2023/09/03 01:26:16;;;;;;;;;;;;;;;26.78;56.52;101678.13;5044943;28;20393;-86
2023/09/03 01:28:42;;;;;;;;;;;;;;;26.77;57.02;101678.13;5058800;28;20405;-88
2023/09/03 01:31:11;;;;;;;;;;;;;;;26.77;56.69;101683.50;5068696;28;19920;-89
2023/09/03 01:33:45;;;;;;;;;;;;;;;26.78;56.79;101686.19;5039787;28;19932;-89
2023/09/03 01:36:11;;;;;;;;;;;;;;;26.79;56.93;101670.97;5073457;28;19924;-89
2023/09/03 01:38:37;;;;;;;;;;;;;;;26.79;56.60;101679.91;5049769;28;19917;-87
2023/09/03 01:41:02;;;;;;;;;;;;;;;26.75;56.75;101680.78;5062944;28;20313;-88
2023/09/03 01:43:28;;;;;;;;;;;;;;;26.76;56.89;101681.72;5050758;28;19973;-88
2023/09/03 01:45:55;;;;;;;;;;;;;;;26.73;56.79;101679.94;5052478;28;19923;-88
2023/09/03 01:48:37;;;;;;;;;;;;;;;26.72;56.84;101688.84;5052977;28;20006;-87
2023/09/03 01:51:21;;;;;;;;;;;;;;;26.70;56.39;101674.56;5063656;28;19920;-87
2023/09/03 01:53:53;;;;;;;;;;;;;;;26.72;56.18;101678.13;5060560;28;19928;-87
2023/09/03 01:56:20;;;;;;;;;;;;;;;26.71;56.27;101675.44;5060960;28;19913;-87
2023/09/03 01:58:45;;;;;;;;;;;;;;;26.66;56.35;101670.06;5043410;28;20371;-87
2023/09/03 02:01:11;;;;;;;;;;;;;;;26.66;56.13;101677.22;5081244;28;20034;-88
2023/09/03 02:03:37;;;;;;;;;;;;;;;26.69;56.42;101674.53;5050758;28;20398;-87
2023/09/03 02:06:05;;;;;;;;;;;;;;;26.66;56.50;101677.22;5057091;28;19913;-87
2023/09/03 02:08:30;;;;;;;;;;;;;;;26.64;56.19;101669.19;5079931;28;19921;-87
2023/09/03 02:10:56;;;;;;;;;;;;;;;26.65;56.40;101673.66;5048603;28;19931;-88
2023/09/03 02:13:21;;;;;;;;;;;;;;;26.62;56.50;101662.91;5069979;28;19951;-88
2023/09/03 02:15:47;;;;;;;;;;;;;;;26.65;56.14;101670.97;5066936;28;19917;-88
2023/09/03 02:18:12;;;;;;;;;;;;;;;26.63;56.39;101667.41;5076742;28;19923;-87
2023/09/03 02:20:38;;;;;;;;;;;;;;;26.66;56.30;101659.34;5079196;28;19917;-87
2023/09/03 02:23:03;;;;;;;;;;;;;;;26.63;56.59;101650.41;5069725;28;19979;-89
2023/09/03 02:25:29;;;;;;;;;;;;;;;26.60;56.36;101657.56;5047639;28;19921;-87
2023/09/03 02:27:54;;;;;;;;;;;;;;;26.65;56.14;101662.03;5067950;28;19924;-87
2023/09/03 02:30:20;;;;;;;;;;;;;;;26.63;56.27;101661.13;5041339;28;19960;-88
2023/09/03 02:32:46;;;;;;;;;;;;;;;26.63;56.20;101662.03;5070320;28;19917;-88
2023/09/03 02:35:11;;;;;;;;;;;;;;;26.63;56.02;101662.03;5078200;28;19924;-87
2023/09/03 02:37:37;;;;;;;;;;;;;;;26.64;56.21;101668.28;5078836;28;19924;-88
2023/09/03 02:40:02;;;;;;;;;;;;;;;26.57;56.11;101667.38;5044749;28;19917;-88
2023/09/03 02:42:28;;;;;;;;;;;;;;;26.57;56.01;101668.28;5045963;28;19967;-88
2023/09/03 02:44:53;;;;;;;;;;;;;;;26.59;56.01;101662.94;5044491;28;20386;-86
2023/09/03 02:47:18;;;;;;;;;;;;;;;26.57;55.73;101659.34;5059617;28;20107;-87
2023/09/03 02:49:44;;;;;;;;;;;;;;;26.60;55.87;101664.69;5053175;28;20389;-88
2023/09/03 02:52:09;;;;;;;;;;;;;;;26.58;55.92;101663.81;5038169;28;19952;-87
2023/09/03 02:54:35;;;;;;;;;;;;;;;26.55;55.86;101667.34;5061152;28;20913;-88
2023/09/03 02:57:00;;;;;;;;;;;;;;;26.55;56.14;101663.78;5036526;28;19916;-88
2023/09/03 02:59:26;;;;;;;;;;;;;;;26.55;55.71;101670.03;5036073;28;19932;-87
2023/09/03 03:01:51;;;;;;;;;;;;;;;26.56;55.89;101661.16;5042207;28;19971;-88
2023/09/03 03:04:17;;;;;;;;;;;;;;;26.55;55.77;101664.66;5070900;28;20397;-87
2023/09/03 03:06:42;;;;;;;;;;;;;;;26.57;55.68;101668.28;5065579;28;19989;-88
2023/09/03 03:09:07;;;;;;;;;;;;;;;26.55;55.40;101661.09;5049938;28;19923;-87
2023/09/03 03:11:33;;;;;;;;;;;;;;;26.55;55.53;101655.75;5043083;28;20580;-87
2023/09/03 03:13:58;;;;;;;;;;;;;;;26.54;55.49;101646.81;5060323;28;20463;-87
2023/09/03 03:16:24;;;;;;;;;;;;;;;26.53;55.58;101655.72;5052704;28;19920;-87
2023/09/03 03:18:50;;;;;;;;;;;;;;;26.52;55.54;101661.06;5052473;28;19924;-86
2023/09/03 03:21:19;;;;;;;;;;;;;;;26.52;55.67;101658.41;5073334;28;19912;-87
2023/09/03 03:23:48;;;;;;;;;;;;;;;26.57;55.78;101659.34;5068955;28;20001;-86
2023/09/03 03:26:13;;;;;;;;;;;;;;;26.56;56.18;101668.22;5071722;28;20068;-86
2023/09/03 03:28:39;;;;;;;;;;;;;;;26.52;55.96;101658.41;5042096;28;20011;-88
2023/09/03 03:31:10;;;;;;;;;;;;;;;26.56;56.26;101662.88;5046914;28;19928;-86
2023/09/03 03:33:36;;;;;;;;;;;;;;;26.53;55.74;101666.44;5062578;28;19928;-85
2023/09/03 03:36:02;;;;;;;;;;;;;;;26.52;56.01;101663.75;5063385;28;19935;-87
2023/09/03 03:38:27;;;;;;;;;;;;;;;26.55;56.13;101658.41;5049862;28;19916;-88
2023/09/03 03:40:52;;;;;;;;;;;;;;;26.51;56.10;101657.50;5085489;28;19916;-88
2023/09/03 03:43:18;;;;;;;;;;;;;;;26.52;56.03;101670.03;5064616;28;20401;-88
2023/09/03 03:45:43;;;;;;;;;;;;;;;26.47;55.86;101660.19;5065739;28;20393;-86
2023/09/03 03:48:09;;;;;;;;;;;;;;;26.48;56.04;101665.56;5058147;28;21431;-87
2023/09/03 03:50:34;;;;;;;;;;;;;;;26.48;55.78;101667.31;5037879;28;19924;-88
2023/09/03 03:53:00;;;;;;;;;;;;;;;26.46;55.81;101670.00;5066145;28;20406;-86
2023/09/03 03:55:25;;;;;;;;;;;;;;;26.48;55.99;101662.88;5046183;28;20032;-86
2023/09/03 03:57:50;;;;;;;;;;;;;;;26.50;55.90;101665.53;5059584;28;19917;-89
2023/09/03 04:00:16;;;;;;;;;;;;;;;26.43;56.04;101663.75;5061241;28;20387;-86
2023/09/03 04:02:42;;;;;;;;;;;;;;;26.49;55.97;101659.28;5064226;28;19917;-88
2023/09/03 04:05:07;;;;;;;;;;;;;;;26.48;55.88;101657.50;5056328;28;19923;-88
2023/09/03 04:07:33;;;;;;;;;;;;;;;26.47;55.72;101649.47;5054464;28;19916;-87
2023/09/03 04:09:59;;;;;;;;;;;;;;;26.46;55.93;101650.34;5064176;28;20382;-88
2023/09/03 04:12:25;;;;;;;;;;;;;;;26.47;55.66;101652.16;5044363;28;19921;-87
2023/09/03 04:14:50;;;;;;;;;;;;;;;26.46;55.83;101647.66;5059648;28;19924;-88
2023/09/03 04:17:16;;;;;;;;;;;;;;;26.46;55.86;101650.34;5034359;28;19963;-87
2023/09/03 04:19:46;;;;;;;;;;;;;;;26.42;55.45;101657.50;5034478;28;20377;-88
2023/09/03 04:22:12;;;;;;;;;;;;;;;26.44;55.50;101661.06;5058893;28;19956;-88
2023/09/03 04:24:37;;;;;;;;;;;;;;;26.45;55.55;101659.28;5055842;28;19959;-88
2023/09/03 04:27:03;;;;;;;;;;;;;;;26.44;55.47;101658.41;5038319;28;19920;-88
2023/09/03 04:29:28;;;;;;;;;;;;;;;26.45;55.54;101665.53;5058863;28;19960;-88
2023/09/03 04:31:54;;;;;;;;;;;;;;;26.46;55.60;101661.06;5038868;28;20034;-87
2023/09/03 04:34:19;;;;;;;;;;;;;;;26.48;55.70;101654.84;5048395;28;20416;-87
2023/09/03 04:36:44;;;;;;;;;;;;;;;26.46;55.98;101653.03;5066760;28;19959;-87
2023/09/03 04:39:11;;;;;;;;;;;;;;;26.44;55.68;101658.41;5050514;28;19939;-88
2023/09/03 04:41:36;;;;;;;;;;;;;;;26.44;55.43;101654.81;5067035;28;19921;-88
2023/09/03 04:44:07;;;;;;;;;;;;;;;26.43;55.83;101655.72;5062907;28;19924;-87
2023/09/03 04:46:32;;;;;;;;;;;;;;;26.41;55.56;101658.38;5037380;28;19916;-87
2023/09/03 04:48:57;;;;;;;;;;;;;;;26.41;55.62;101651.22;5036513;28;19940;-88
2023/09/03 04:51:23;;;;;;;;;;;;;;;26.41;55.56;101650.34;5021033;28;19964;-88
2023/09/03 04:53:48;;;;;;;;;;;;;;;26.46;55.78;101644.97;5057786;28;19913;-88
2023/09/03 04:56:14;;;;;;;;;;;;;;;26.45;55.60;101644.09;5065188;28;20711;-88
2023/09/03 04:58:39;;;;;;;;;;;;;;;26.40;55.58;101633.38;5051667;28;19912;-89
2023/09/03 05:01:14;;;;;;;;;;;;;;;26.44;55.79;101641.41;5060452;28;20008;-87
2023/09/03 05:03:40;;;;;;;;;;;;;;;26.40;55.63;101641.41;5061678;28;19976;-87
2023/09/03 05:06:05;;;;;;;;;;;;;;;26.44;55.65;101636.06;5063147;28;19917;-87
2023/09/03 05:08:30;;;;;;;;;;;;;;;26.28;54.48;101633.34;5044903;28;19977;-83
2023/09/03 05:10:56;;;;;;;;;;;;;;;26.27;52.40;101633.31;5055660;28;20446;-83
2023/09/03 05:13:21;;;;;;;;;;;;;;;26.29;51.98;101636.91;5060041;28;20308;-85
2023/09/03 05:15:49;;;;;;;;;;;;;;;26.26;53.19;101640.47;5051560;28;19921;-87
2023/09/03 05:18:15;;;;;;;;;;;;;;;26.39;52.28;101639.66;5046456;28;20445;-91
2023/09/03 05:20:40;;;;;;;;;;;;;;;26.44;52.64;101644.09;5059812;28;20007;-87
2023/09/03 05:23:05;;;;;;;;;;;;;;;26.44;52.79;101636.06;5034815;28;20613;-88
2023/09/03 05:25:31;;;;;;;;;;;;;;;26.45;52.91;101643.22;5035216;28;20321;-87
2023/09/03 05:27:56;;;;;;;;;;;;;;;26.43;53.16;101629.81;5043112;28;19932;-90
2023/09/03 05:30:22;;;;;;;;;;;;;;;26.41;53.31;101636.94;5038215;28;19978;-89
2023/09/03 05:32:48;;;;;;;;;;;;;;;26.42;53.33;101633.41;5059149;28;20377;-88
2023/09/03 05:35:13;;;;;;;;;;;;;;;26.44;53.58;101639.66;5074977;28;19916;-89
2023/09/03 05:37:40;;;;;;;;;;;;;;;26.44;53.71;101644.09;5038446;28;19917;-88
2023/09/03 05:40:07;;;;;;;;;;;;;;;26.42;53.49;101633.41;5063812;28;20306;-90
2023/09/03 05:42:32;;;;;;;;;;;;;;;26.46;53.52;101643.22;5045107;28;19951;-87
2023/09/03 05:44:59;;;;;;;;;;;;;;;26.45;53.91;101636.06;5060557;28;19939;-88
2023/09/03 05:47:24;;;;;;;;;;;;;;;26.44;53.69;101641.41;5050601;28;20305;-88
2023/09/03 05:49:53;;;;;;;;;;;;;;;26.44;53.96;101631.63;5050665;28;20369;-88
2023/09/03 05:52:18;;;;;;;;;;;;;;;26.43;53.91;101635.16;5061350;28;19923;-88
2023/09/03 05:54:43;;;;;;;;;;;;;;;26.45;53.88;101633.38;5043271;28;19916;-88
2023/09/03 05:57:09;;;;;;;;;;;;;;;26.40;54.14;101628.03;5048663;28;20310;-88
2023/09/03 05:59:34;;;;;;;;;;;;;;;26.39;54.17;101628.94;5046645;28;20366;-87
2023/09/03 06:02:00;;;;;;;;;;;;;;;26.41;54.28;101629.78;5046427;28;19916;-87
2023/09/03 06:04:25;;;;;;;;;;;;;;;26.42;54.37;101636.06;5035336;28;19964;-87
2023/09/03 06:06:51;;;;;;;;;;;;;;;26.39;54.61;101623.56;5061716;28;19947;-88
2023/09/03 06:09:18;;;;;;;;;;;;;;;26.37;54.67;101619.06;5074364;28;19920;-86
2023/09/03 06:11:46;;;;;;;;;;;;;;;26.40;54.82;101629.81;5071936;28;19967;-88
2023/09/03 06:14:11;;;;;;;;;;;;;;;26.39;54.70;101628.00;5041226;28;19917;-86
2023/09/03 06:16:37;;;;;;;;;;;;;;;26.38;54.61;101613.72;5037705;28;19931;-87
2023/09/03 06:19:02;;;;;;;;;;;;;;;26.41;54.95;101629.78;5060884;28;20385;-86
2023/09/03 06:21:29;;;;;;;;;;;;;;;26.44;55.01;101628.00;5069211;28;19916;-86
2023/09/03 06:23:54;;;;;;;;;;;;;;;26.40;55.10;101625.34;5060773;28;20516;-86
2023/09/03 06:26:20;;;;;;;;;;;;;;;26.42;55.11;101625.34;5059957;28;19999;-86
2023/09/03 06:28:46;;;;;;;;;;;;;;;26.40;55.37;101629.81;5055407;28;19963;-88
2023/09/03 06:31:12;;;;;;;;;;;;;;;26.41;55.04;101629.78;5062859;28;20008;-88
2023/09/03 06:33:38;;;;;;;;;;;;;;;26.37;55.50;101629.78;5049676;28;20007;-89
2023/09/03 06:36:03;;;;;;;;;;;;;;;26.35;55.86;101634.25;5035445;28;20008;-89
2023/09/03 06:38:29;;;;;;;;;;;;;;;26.40;55.71;101636.06;5052334;28;19964;-86
2023/09/03 06:40:54;;;;;;;;;;;;;;;26.29;56.51;101639.59;5053221;28;19913;-88
2023/09/03 06:43:23;;;;;;;;;;;;;;;26.36;55.84;101641.41;5055829;28;19917;-88
2023/09/03 06:45:48;;;;;;;;;;;;;;;26.38;56.16;101645.88;5063292;28;19932;-88
2023/09/03 06:48:14;;;;;;;;;;;;;;;26.35;55.95;101642.28;5053610;28;19921;-87
2023/09/03 06:50:42;;;;;;;;;;;;;;;26.36;55.64;101647.66;5052462;28;20314;-88
2023/09/03 06:53:08;;;;;;;;;;;;;;;26.29;56.82;101651.22;5035964;28;19913;-88
2023/09/03 06:55:33;;;;;;;;;;;;;;;26.22;56.69;101649.38;5067410;28;19923;-87
2023/09/03 06:57:59;;;;;;;;;;;;;;;26.26;56.49;101644.94;5055747;28;19916;-88
2023/09/03 07:00:26;;;;;;;;;;;;;;;26.23;56.60;101642.28;5048412;28;19939;-87
2023/09/03 07:03:00;;;;;;;;;;;;;;;26.22;57.04;101649.38;5052494;28;19924;-90
2023/09/03 07:06:00;;;;;;;;;;;;;;;26.25;56.44;101649.41;5067143;28;20021;-88
2023/09/03 07:08:25;;;;;;;;;;;;;;;26.26;56.30;101647.63;5043055;28;19924;-88
2023/09/03 07:10:51;;;;;;;;;;;;;;;26.30;56.12;101652.97;5047143;28;19928;-88
2023/09/03 07:13:17;;;;;;;;;;;;;;;26.27;56.40;101653.00;5054246;28;19924;-89
2023/09/03 07:15:49;;;;;;;;;;;;;;;26.28;56.34;101656.56;5034552;28;19924;-90
2023/09/03 07:18:15;;;;;;;;;;;;;;;26.26;56.71;101647.63;5060273;28;20412;-89
2023/09/03 07:20:40;;;;;;;;;;;;;;;26.31;56.36;101653.88;5039801;28;19913;-88
2023/09/03 07:23:06;;;;;;;;;;;;;;;26.28;56.57;101654.75;5060721;28;19937;-89
2023/09/03 07:25:35;;;;;;;;;;;;;;;26.30;56.58;101654.78;5051522;28;19916;-87
2023/09/03 07:28:01;;;;;;;;;;;;;;;26.31;56.53;101656.56;5051742;28;19939;-88
2023/09/03 07:30:26;;;;;;;;;;;;;;;26.31;56.38;101657.47;5035041;28;20023;-90
2023/09/03 07:32:52;;;;;;;;;;;;;;;26.33;56.63;101654.78;5039750;28;19916;-89
2023/09/03 07:35:19;;;;;;;;;;;;;;;26.33;56.24;101665.50;5035221;28;19913;-90
2023/09/03 07:37:45;;;;;;;;;;;;;;;26.32;56.59;101664.59;5035694;28;19912;-90
2023/09/03 07:40:10;;;;;;;;;;;;;;;26.29;56.33;101661.00;5050788;28;19917;-89
2023/09/03 07:42:36;;;;;;;;;;;;;;;26.30;56.26;101662.81;5044208;28;19974;-90
2023/09/03 07:45:02;;;;;;;;;;;;;;;26.30;56.26;101660.13;5051701;28;19947;-88
2023/09/03 07:47:27;;;;;;;;;;;;;;;26.31;55.97;101661.91;5041982;28;19925;-89
2023/09/03 07:49:53;;;;;;;;;;;;;;;26.30;56.21;101662.81;5043256;28;19928;-90
2023/09/03 07:52:18;;;;;;;;;;;;;;;26.28;56.16;101667.28;5068358;28;20095;-89
2023/09/03 07:54:43;;;;;;;;;;;;;;;26.30;55.92;101669.06;5049648;28;20004;-90
2023/09/03 07:57:10;;;;;;;;;;;;;;;26.28;56.02;101664.59;5065095;28;20310;-91
2023/09/03 07:59:35;;;;;;;;;;;;;;;26.26;55.74;101677.06;5066876;28;19917;-90
2023/09/03 08:02:02;;;;;;;;;;;;;;;26.30;55.65;101670.84;5071494;28;20447;-90
2023/09/03 08:04:28;;;;;;;;;;;;;;;26.31;55.87;101669.94;5042510;28;19928;-90
2023/09/03 08:06:54;;;;;;;;;;;;;;;26.27;56.01;101671.75;5068309;28;19916;-90
2023/09/03 08:09:22;;;;;;;;;;;;;;;26.27;55.86;101670.81;5062591;28;20300;-90
2023/09/03 08:11:48;;;;;;;;;;;;;;;26.24;56.22;101670.81;5061728;28;20524;-89
2023/09/03 08:14:13;;;;;;;;;;;;;;;26.29;55.98;101674.41;5036973;28;19917;-90
2023/09/03 08:16:39;;;;;;;;;;;;;;;26.30;55.93;101665.50;5078914;28;19920;-92
2023/09/03 08:19:05;;;;;;;;;;;;;;;26.30;55.90;101660.13;5031306;28;19925;-91
2023/09/03 08:21:30;;;;;;;;;;;;;;;26.33;55.50;101668.16;5034071;28;19923;-90
2023/09/03 08:23:56;;;;;;;;;;;;;;;26.32;55.56;101672.63;5057007;28;19996;-92
2023/09/03 08:26:22;;;;;;;;;;;;;;;26.32;55.21;101663.72;5075041;28;20291;-90
2023/09/03 08:28:48;;;;;;;;;;;;;;;26.34;55.33;101664.63;5051969;28;19917;-87
2023/09/03 08:31:14;;;;;;;;;;;;;;;26.32;55.27;101671.75;5047085;28;20349;-87
2023/09/03 08:33:41;;;;;;;;;;;;;;;26.31;55.27;101660.16;5047125;28;19925;-90
2023/09/03 08:36:11;;;;;;;;;;;;;;;26.32;55.24;101661.91;5048707;28;19912;-90
2023/09/03 08:38:37;;;;;;;;;;;;;;;26.35;55.22;101663.72;5076645;28;19920;-90
2023/09/03 08:41:03;;;;;;;;;;;;;;;26.33;55.01;101663.72;5039500;28;19921;-91
2023/09/03 08:43:28;;;;;;;;;;;;;;;26.35;54.99;101664.63;5065981;28;19917;-90
2023/09/03 08:45:55;;;;;;;;;;;;;;;26.35;55.28;101661.94;5031204;28;20296;-89
2023/09/03 08:48:21;;;;;;;;;;;;;;;26.33;55.46;101671.75;5050130;28;20478;-90
2023/09/03 08:50:46;;;;;;;;;;;;;;;26.39;55.11;101666.44;5030525;28;20011;-89
2023/09/03 08:53:13;;;;;;;;;;;;;;;26.38;55.03;101661.94;5045117;28;20306;-92
2023/09/03 08:55:41;;;;;;;;;;;;;;;26.36;54.55;101658.38;5073068;28;19912;-90
2023/09/03 08:58:07;;;;;;;;;;;;;;;26.37;54.48;101654.81;5022305;28;19921;-89
2023/09/03 09:00:33;;;;;;;;;;;;;;;26.36;54.88;101647.66;5070177;28;20003;-90
2023/09/03 09:03:01;;;;;;;;;;;;;;;26.36;54.83;101652.13;5073471;28;19917;-88
2023/09/03 09:05:33;;;;;;;;;;;;;;;26.38;54.50;101651.22;5077375;28;19912;-90
2023/09/03 09:07:59;;;;;;;;;;;;;;;26.36;54.75;101654.81;5037534;28;19924;-88
2023/09/03 09:10:26;;;;;;;;;;;;;;;26.37;54.37;101649.47;5047025;28;19936;-88
2023/09/03 09:12:52;;;;;;;;;;;;;;;26.38;54.35;101656.59;5081511;28;19945;-89
2023/09/03 09:15:23;;;;;;;;;;;;;;;26.38;54.63;101650.34;5079248;28;19928;-89
2023/09/03 09:17:48;;;;;;;;;;;;;;;26.39;54.60;101653.03;5038186;28;19913;-89
2023/09/03 09:20:17;;;;;;;;;;;;;;;26.43;53.80;101651.22;5035614;28;19916;-89
2023/09/03 09:22:44;;;;;;;;;;;;;;;26.43;53.19;101650.34;5033020;28;19920;-87
2023/09/03 09:25:10;;;;;;;;;;;;;;;26.45;54.03;101645.88;5048028;28;20413;-88
2023/09/03 09:27:37;;;;;;;;;;;;;;;26.46;54.02;101644.97;5040365;28;19917;-88
2023/09/03 09:30:12;;;;;;;;;;;;;;;26.45;54.66;101645.88;5079261;28;19924;-88
2023/09/03 09:32:41;;;;;;;;;;;;;;;26.49;54.13;101655.72;5063768;28;19920;-86
2023/09/03 09:35:07;;;;;;;;;;;;;;;26.45;54.00;101638.75;5053163;28;19917;-85
2023/09/03 09:37:38;;;;;;;;;;;;;;;26.47;53.76;101642.31;5044700;28;19971;-87
2023/09/03 09:40:04;;;;;;;;;;;;;;;26.49;54.15;101642.34;5050818;28;20391;-89
2023/09/03 09:42:29;;;;;;;;;;;;;;;26.54;54.23;101637.88;5081294;28;19913;-88
2023/09/03 09:44:55;;;;;;;;;;;;;;;26.51;54.76;101644.13;5048809;28;20368;-88
2023/09/03 09:47:21;;;;;;;;;;;;;;;26.48;53.83;101641.44;5083515;28;19959;-88
2023/09/03 09:49:47;;;;;;;;;;;;;;;26.51;54.46;101637.88;5042685;28;19920;-88
2023/09/03 09:52:13;;;;;;;;;;;;;;;26.55;54.46;101643.22;5049278;28;19917;-87
2023/09/03 09:54:39;;;;;;;;;;;;;;;26.54;53.88;101637.88;5079509;28;19923;-88
2023/09/03 09:57:09;;;;;;;;;;;;;;;26.55;53.87;101631.63;5034762;28;19917;-88
2023/09/03 09:59:34;;;;;;;;;;;;;;;26.57;54.17;101632.56;5080511;28;19928;-87
2023/09/03 10:02:13;;;;;;;;;;;;;;;26.58;54.11;101623.63;5044745;28;19917;-88
2023/09/03 10:04:42;;;;;;;;;;;;;;;26.59;54.36;101623.63;5063839;28;19913;-87
2023/09/03 10:07:08;;;;;;;;;;;;;;;26.56;54.02;101629.00;5055145;28;20011;-89
2023/09/03 10:09:35;;;;;;;;;;;;;;;26.60;54.33;101629.88;5065865;28;20010;-89
2023/09/03 10:12:03;;;;;;;;;;;;;;;26.63;54.23;101628.97;5066175;28;19919;-89
2023/09/03 10:14:28;;;;;;;;;;;;;;;26.65;54.26;101624.50;5066111;28;19921;-89
2023/09/03 10:16:54;;;;;;;;;;;;;;;26.60;54.07;101620.03;5079524;28;19942;-89
2023/09/03 10:19:19;;;;;;;;;;;;;;;26.60;54.03;101621.84;5034635;28;19917;-89
2023/09/03 10:21:46;;;;;;;;;;;;;;;26.60;53.59;101625.41;5041046;28;19920;-87
2023/09/03 10:24:15;;;;;;;;;;;;;;;26.58;54.42;101613.78;5073821;28;19913;-88
2023/09/03 10:26:41;;;;;;;;;;;;;;;26.60;54.23;101616.47;5042946;28;19920;-87
2023/09/03 10:29:07;;;;;;;;;;;;;;;26.63;53.79;101610.22;5062109;28;20321;-88
2023/09/03 10:31:33;;;;;;;;;;;;;;;26.64;53.63;101607.56;5080625;28;20059;-87
2023/09/03 10:33:58;;;;;;;;;;;;;;;26.63;53.45;101599.50;5044395;28;19913;-89
2023/09/03 10:36:34;;;;;;;;;;;;;;;26.59;54.08;101601.31;5050719;28;19916;-87
2023/09/03 10:38:59;;;;;;;;;;;;;;;26.60;53.57;101592.38;5055343;28;19917;-88
2023/09/03 10:41:25;;;;;;;;;;;;;;;26.64;53.22;101594.16;5048978;28;19925;-88
2023/09/03 10:43:51;;;;;;;;;;;;;;;26.61;53.73;101591.50;5084537;28;19913;-87
2023/09/03 10:46:16;;;;;;;;;;;;;;;26.66;53.59;101589.69;5071575;28;19921;-88
2023/09/03 10:48:52;;;;;;;;;;;;;;;26.67;53.87;101586.13;5079116;28;19928;-88
2023/09/03 10:51:32;;;;;;;;;;;;;;;26.64;53.73;101574.50;5095604;28;19925;-87
2023/09/03 10:54:13;;;;;;;;;;;;;;;26.66;53.75;101570.06;5048097;28;19920;-89
2023/09/03 10:56:50;;;;;;;;;;;;;;;26.66;53.97;101567.38;5044750;28;19918;-89
2023/09/03 10:59:16;;;;;;;;;;;;;;;26.66;54.50;101567.38;5078083;28;19924;-88
2023/09/03 11:01:44;;;;;;;;;;;;;;;26.66;54.86;101564.69;5042095;28;19940;-89
2023/09/03 11:04:10;;;;;;;;;;;;;;;26.62;55.48;101562.91;5059327;28;19982;-88
2023/09/03 11:06:35;;;;;;;;;;;;;;;26.62;55.17;101569.16;5050371;28;19917;-88
2023/09/03 11:09:01;;;;;;;;;;;;;;;26.63;55.59;101570.03;5064353;28;20291;-89
2023/09/03 11:11:28;;;;;;;;;;;;;;;26.60;55.60;101574.50;5054598;28;19921;-89
2023/09/03 11:13:54;;;;;;;;;;;;;;;26.62;55.99;101563.78;5084103;28;19974;-87
2023/09/03 11:16:26;;;;;;;;;;;;;;;26.64;55.83;101564.69;5032635;28;19917;-90
2023/09/03 11:18:52;;;;;;;;;;;;;;;26.66;55.64;101567.38;5033510;28;19917;-88
2023/09/03 11:21:17;;;;;;;;;;;;;;;26.71;55.78;101571.84;5064079;28;19970;-88
2023/09/03 11:23:59;;;;;;;;;;;;;;;26.74;55.92;101574.50;5045735;28;19943;-87
2023/09/03 11:26:24;;;;;;;;;;;;;;;26.75;56.28;101570.03;5047111;28;19920;-88
2023/09/03 11:28:51;;;;;;;;;;;;;;;26.73;56.01;101572.75;5046153;28;19975;-89
2023/09/03 11:31:16;;;;;;;;;;;;;;;26.78;55.74;101567.38;5040934;28;19924;-89
2023/09/03 11:33:41;;;;;;;;;;;;;;;26.79;55.61;101569.16;5049130;28;20369;-90
2023/09/03 11:36:07;;;;;;;;;;;;;;;26.84;55.91;101566.47;5036298;28;20394;-90
2023/09/03 11:38:33;;;;;;;;;;;;;;;26.87;55.74;101561.13;5055514;28;19917;-84
2023/09/03 11:40:58;;;;;;;;;;;;;;;26.88;55.86;101557.53;5032628;28;19970;-83
2023/09/03 11:43:24;;;;;;;;;;;;;;;26.89;56.03;101559.31;5064388;28;19917;-83
2023/09/03 11:45:50;;;;;;;;;;;;;;;26.92;55.49;101562.00;5064717;28;19959;-83
2023/09/03 11:48:15;;;;;;;;;;;;;;;26.99;55.33;101558.44;5052770;28;19982;-83
2023/09/03 11:50:41;;;;;;;;;;;;;;;27.01;55.48;101559.31;5034596;28;19963;-83
2023/09/03 11:53:08;;;;;;;;;;;;;;;26.99;55.39;101558.44;5051138;28;19991;-84
2023/09/03 11:55:37;;;;;;;;;;;;;;;27.05;55.14;101550.38;5053301;28;20350;-83
2023/09/03 11:58:04;;;;;;;;;;;;;;;27.30;56.13;101553.91;5055416;28;19940;-85
2023/09/03 12:00:31;;;;;;;;;;;;;;;27.28;56.00;101560.19;5059865;28;20412;-83
2023/09/03 12:02:58;;;;;;;;;;;;;;;27.21;55.67;101554.78;5050717;28;19913;-84
2023/09/03 12:05:23;;;;;;;;;;;;;;;27.13;56.47;101547.66;5067057;28;19958;-84
2023/09/03 12:07:49;;;;;;;;;;;;;;;27.12;56.04;101549.47;5051044;28;19912;-84
2023/09/03 12:10:18;;;;;;;;;;;;;;;27.15;55.63;101545.88;5041970;28;20421;-84
2023/09/03 12:12:44;;;;;;;;;;;;;;;27.15;55.75;101551.25;5056546;28;20453;-84
2023/09/03 12:15:17;;;;;;;;;;;;;;;27.16;55.55;101553.03;5066392;28;20003;-84
2023/09/03 12:17:42;;;;;;;;;;;;;;;27.14;56.03;101547.66;5069886;28;19916;-83
2023/09/03 12:20:08;;;;;;;;;;;;;;;27.13;55.96;101540.50;5054700;28;19921;-84
2023/09/03 12:22:33;;;;;;;;;;;;;;;27.15;55.61;101541.41;5050628;28;19921;-83
2023/09/03 12:25:03;;;;;;;;;;;;;;;27.16;56.15;101543.19;5057810;28;19919;-82
2023/09/03 12:27:31;;;;;;;;;;;;;;;27.15;55.91;101543.19;5067435;28;19928;-84
2023/09/03 12:29:56;;;;;;;;;;;;;;;27.16;56.02;101536.94;5059364;28;20555;-85
2023/09/03 12:32:31;;;;;;;;;;;;;;;27.15;55.59;101536.03;5068471;28;20029;-84